Loyola Beach, Texas
Current Conditions -  °F | °C
As of 4:56 AM on Thursday 18 Dec 2014 (Local Time) from KNQI Reporting Station
Overcast Overcast  
Wind Chill: 69°   Ceiling: 2600
Heat Index: 69°   Visibility: 10mi
Dew Point: 68°   Wind: 3mph
Humidity: 96%   Direction: 110°ESE
Pressure: 29.99"   Gusts: NA
Location:  27.3193°N, 97.8839°W
Report Text: KNQI 181056Z AUTO 11003KT 10SM SCT015 OVC026 21/20 A2999 RMK AO2 SLP152 T02060200
Loading
Personal Weather Stations






























Interactive Weather Map New forecast layout! Learn more

10-Day Weather Forecast

Advertisements
Track Severe Weather on mobile